createdAt,value
2023-04-24T00:01:11.628Z,99514.55
2023-04-24T00:03:40.654Z,99512.55
2023-04-24T00:06:11.862Z,99513.85
2023-04-24T00:08:39.926Z,99507.25
2023-04-24T00:11:08.114Z,99505.73
2023-04-24T00:13:36.586Z,99503.65
2023-04-24T00:16:05.046Z,99507.22
2023-04-24T00:18:33.329Z,99507.20
2023-04-24T00:21:01.403Z,99506.81
2023-04-24T00:23:29.575Z,99499.81
2023-04-24T00:25:57.744Z,99494.23
2023-04-24T00:28:25.918Z,99490.52
2023-04-24T00:30:55.123Z,99485.20
2023-04-24T00:33:23.287Z,99478.30
2023-04-24T00:35:51.358Z,99472.55
2023-04-24T00:38:19.813Z,99468.27
2023-04-24T00:40:51.064Z,99468.57
2023-04-24T00:43:19.254Z,99466.93
2023-04-24T00:45:47.710Z,99465.18
2023-04-24T00:48:16.029Z,99462.05
2023-04-24T00:50:44.281Z,99461.02
2023-04-24T00:53:12.602Z,99461.84
2023-04-24T00:55:41.353Z,99463.50
2023-04-24T00:58:09.625Z,99459.62
2023-04-24T01:00:38.207Z,99455.73
2023-04-24T01:03:07.348Z,99452.11
2023-04-24T01:05:35.791Z,99447.96
2023-04-24T01:08:04.372Z,99448.73
2023-04-24T01:10:34.988Z,99446.14
2023-04-24T01:13:03.160Z,99443.53
2023-04-24T01:15:31.435Z,99437.91
2023-04-24T01:17:59.654Z,99432.67
2023-04-24T01:20:27.987Z,99434.45
2023-04-24T01:22:57.692Z,99432.47
2023-04-24T01:25:27.094Z,99431.59
2023-04-24T01:27:55.281Z,99430.55
2023-04-24T01:30:23.443Z,99432.20
2023-04-24T01:32:53.016Z,99432.48
2023-04-24T01:35:21.731Z,99427.80
2023-04-24T01:37:49.902Z,99426.40
2023-04-24T01:40:18.077Z,99423.06
2023-04-24T01:42:46.564Z,99419.08
2023-04-24T01:45:14.723Z,99416.23
2023-04-24T01:47:43.156Z,99413.75
2023-04-24T01:50:11.796Z,99413.79
2023-04-24T01:52:40.882Z,99412.30
2023-04-24T01:55:11.818Z,99416.88
2023-04-24T01:57:40.295Z,99413.86
2023-04-24T02:00:09.084Z,99414.01
2023-04-24T02:02:45.699Z,99413.91
2023-04-24T02:05:16.200Z,99408.43
2023-04-24T02:07:44.360Z,99405.09
2023-04-24T02:10:12.626Z,99395.90
2023-04-24T02:12:44.279Z,99393.74
2023-04-24T02:15:13.383Z,99391.02
2023-04-24T02:17:41.708Z,99386.29
2023-04-24T02:20:10.048Z,99387.01
2023-04-24T02:22:40.558Z,99379.23
2023-04-24T02:25:09.541Z,99380.95
2023-04-24T02:27:37.729Z,99377.77
2023-04-24T02:30:08.773Z,99375.27
2023-04-24T02:32:37.137Z,99377.23
2023-04-24T02:35:06.056Z,99370.63
2023-04-24T02:37:34.406Z,99364.84
2023-04-24T02:40:02.876Z,99360.81
2023-04-24T02:42:31.254Z,99356.25
2023-04-24T02:44:59.867Z,99356.65
2023-04-24T02:47:28.232Z,99351.42
2023-04-24T02:49:56.500Z,99346.44
2023-04-24T02:52:24.758Z,99340.45
2023-04-24T02:54:52.933Z,99339.81
2023-04-24T02:57:21.104Z,99334.36
2023-04-24T02:59:49.482Z,99334.04
2023-04-24T03:02:17.818Z,99332.39
2023-04-24T03:04:46.573Z,99334.33
2023-04-24T03:07:15.613Z,99335.91
2023-04-24T03:09:45.240Z,99334.98
2023-04-24T03:12:13.519Z,99330.70
2023-04-24T03:14:41.688Z,99331.84
2023-04-24T03:17:09.962Z,99334.99
2023-04-24T03:19:38.134Z,99336.20
2023-04-24T03:22:10.725Z,99336.29
2023-04-24T03:24:39.503Z,99340.36
2023-04-24T03:27:08.008Z,99343.45
2023-04-24T03:30:03.493Z,99338.05
2023-04-24T03:32:52.105Z,99336.49
2023-04-24T03:35:24.420Z,99332.02
2023-04-24T03:37:53.201Z,99329.95
2023-04-24T03:40:41.648Z,99325.89
2023-04-24T03:43:23.026Z,99332.75
2023-04-24T03:45:52.077Z,99337.59
2023-04-24T03:48:21.215Z,99337.97
2023-04-24T03:50:50.006Z,99333.62
2023-04-24T03:53:18.280Z,99336.69
2023-04-24T03:55:47.276Z,99343.47
2023-04-24T03:58:16.567Z,99346.91
2023-04-24T04:00:45.764Z,99347.27
2023-04-24T04:03:37.496Z,99347.78
2023-04-24T04:06:06.272Z,99349.48
2023-04-24T04:08:34.752Z,99350.27
2023-04-24T04:11:05.123Z,99343.95
2023-04-24T04:13:33.864Z,99340.83
2023-04-24T04:16:02.159Z,99342.83
2023-04-24T04:18:30.719Z,99343.80
2023-04-24T04:20:59.094Z,99340.92
2023-04-24T04:23:27.163Z,99342.51
2023-04-24T04:26:15.510Z,99337.83
2023-04-24T04:29:10.202Z,99342.16
2023-04-24T04:31:42.323Z,99340.13
2023-04-24T04:34:14.331Z,99337.73
2023-04-24T04:36:44.863Z,99334.73
2023-04-24T04:39:22.969Z,99330.51
2023-04-24T04:42:01.786Z,99332.78
2023-04-24T04:44:37.035Z,99337.34
2023-04-24T04:47:06.839Z,99341.89
2023-04-24T04:49:39.710Z,99345.09
2023-04-24T04:52:11.267Z,99352.08
2023-04-24T04:54:39.643Z,99347.33
2023-04-24T04:57:08.332Z,99351.11
2023-04-24T04:59:36.706Z,99352.27
2023-04-24T05:02:07.523Z,99350.06
2023-04-24T05:04:36.155Z,99351.06
2023-04-24T05:07:04.827Z,99349.56
2023-04-24T05:09:34.010Z,99349.57
2023-04-24T05:12:05.150Z,99350.67
2023-04-24T05:14:36.601Z,99351.09
2023-04-24T05:17:05.350Z,99353.79
2023-04-24T05:19:37.079Z,99352.15
2023-04-24T05:22:07.939Z,99352.86
2023-04-24T05:24:37.803Z,99354.73
2023-04-24T05:27:16.311Z,99361.40
2023-04-24T05:29:45.295Z,99359.75
2023-04-24T05:32:14.079Z,99359.98
2023-04-24T05:34:42.454Z,99365.69
2023-04-24T05:37:11.447Z,99364.11
2023-04-24T05:39:39.733Z,99364.75
2023-04-24T05:42:08.504Z,99369.85
2023-04-24T05:44:36.579Z,99375.67
2023-04-24T05:47:04.853Z,99379.91
2023-04-24T05:49:33.947Z,99382.70
2023-04-24T05:52:04.370Z,99384.82
2023-04-24T05:54:32.652Z,99390.67
2023-04-24T05:57:01.536Z,99391.14
2023-04-24T05:59:39.713Z,99395.52
2023-04-24T06:02:08.904Z,99391.55
2023-04-24T06:04:37.620Z,99393.23
2023-04-24T06:07:06.514Z,99396.12
2023-04-24T06:09:35.125Z,99400.23
2023-04-24T06:12:03.879Z,99402.31
2023-04-24T06:14:41.268Z,99405.92
2023-04-24T06:17:42.032Z,99412.73
2023-04-24T06:20:12.197Z,99412.86
2023-04-24T06:22:41.315Z,99416.42
2023-04-24T06:25:09.914Z,99414.54
2023-04-24T06:27:38.070Z,99420.27
2023-04-24T06:30:07.681Z,99423.83
2023-04-24T06:32:35.870Z,99425.87
2023-04-24T06:35:05.228Z,99420.45
2023-04-24T06:37:34.344Z,99425.36
2023-04-24T06:40:03.235Z,99422.67
2023-04-24T06:42:31.407Z,99419.87
2023-04-24T06:44:59.885Z,99419.00
2023-04-24T06:47:28.213Z,99415.98
2023-04-24T06:49:56.843Z,99415.42
2023-04-24T06:52:25.016Z,99409.44
2023-04-24T06:54:53.188Z,99410.77
2023-04-24T06:57:22.178Z,99409.23
2023-04-24T06:59:50.250Z,99409.75
2023-04-24T07:02:18.613Z,99405.11
2023-04-24T07:04:48.749Z,99405.96
2023-04-24T07:07:17.722Z,99407.92
2023-04-24T07:09:46.737Z,99408.88
2023-04-24T07:12:15.006Z,99411.58
2023-04-24T07:14:43.955Z,99412.08
2023-04-24T07:17:14.350Z,99405.33
2023-04-24T07:19:43.156Z,99404.44
2023-04-24T07:22:17.790Z,99403.73
2023-04-24T07:24:46.193Z,99397.60
2023-04-24T07:27:16.251Z,99396.59
2023-04-24T07:29:44.881Z,99397.19
2023-04-24T07:32:13.694Z,99396.55
2023-04-24T07:34:41.971Z,99394.90
2023-04-24T07:37:10.139Z,99394.40
2023-04-24T07:39:38.312Z,99396.14
2023-04-24T07:42:06.488Z,99398.16
2023-04-24T07:44:34.662Z,99402.54
2023-04-24T07:47:02.836Z,99406.66
2023-04-24T07:49:30.999Z,99406.36
2023-04-24T07:52:01.844Z,99406.64
2023-04-24T07:54:30.634Z,99407.85
2023-04-24T07:56:58.793Z,99408.48
2023-04-24T07:59:26.967Z,99411.16
2023-04-24T08:01:55.447Z,99410.53
2023-04-24T08:04:23.857Z,99404.60
2023-04-24T08:06:52.406Z,99409.22
2023-04-24T08:09:20.579Z,99408.96
2023-04-24T08:11:48.852Z,99410.99
2023-04-24T08:14:17.148Z,99415.90
2023-04-24T08:16:45.320Z,99408.33
2023-04-24T08:19:13.469Z,99411.73
2023-04-24T08:21:41.642Z,99410.57
2023-04-24T08:24:09.797Z,99413.77
2023-04-24T08:26:38.091Z,99412.96
2023-04-24T08:29:07.399Z,99416.77
2023-04-24T08:31:36.621Z,99414.93
2023-04-24T08:34:04.858Z,99412.35
2023-04-24T08:36:43.493Z,99416.11
2023-04-24T08:39:15.554Z,99416.73
2023-04-24T08:41:44.493Z,99418.20
2023-04-24T08:44:16.507Z,99413.98
2023-04-24T08:46:48.817Z,99412.61
2023-04-24T08:49:17.852Z,99415.61
2023-04-24T08:51:47.942Z,99417.23
2023-04-24T08:54:16.155Z,99418.61
2023-04-24T08:56:46.365Z,99416.98
2023-04-24T08:59:15.873Z,99415.48
2023-04-24T09:01:45.186Z,99413.14
2023-04-24T09:04:17.805Z,99412.20
2023-04-24T09:06:46.226Z,99411.01
2023-04-24T09:09:14.801Z,99409.26
2023-04-24T09:11:43.076Z,99407.92
2023-04-24T09:14:12.121Z,99399.07
2023-04-24T09:16:40.372Z,99402.06
2023-04-24T09:19:08.516Z,99402.77
2023-04-24T09:21:37.330Z,99404.84
2023-04-24T09:24:08.245Z,99401.99
2023-04-24T09:26:37.740Z,99403.11
2023-04-24T09:29:06.240Z,99401.66
2023-04-24T09:31:34.439Z,99397.98
2023-04-24T09:34:09.636Z,99401.20
2023-04-24T09:36:43.099Z,99403.05
2023-04-24T09:39:14.016Z,99405.52
2023-04-24T09:41:49.508Z,99405.44
2023-04-24T09:44:22.924Z,99408.13
2023-04-24T09:47:01.837Z,99403.61
2023-04-24T09:49:31.739Z,99405.33
2023-04-24T09:52:10.255Z,99399.96
2023-04-24T09:54:39.653Z,99399.54
2023-04-24T09:57:11.002Z,99402.91
2023-04-24T09:59:47.268Z,99399.09
2023-04-24T10:02:22.155Z,99399.45
2023-04-24T10:05:00.282Z,99392.94
2023-04-24T10:07:29.296Z,99391.23
2023-04-24T10:09:57.670Z,99390.00
2023-04-24T10:12:26.470Z,99389.21
2023-04-24T10:14:54.731Z,99387.36
2023-04-24T10:17:23.326Z,99388.14
2023-04-24T10:19:51.588Z,99391.05
2023-04-24T10:22:19.972Z,99387.65
2023-04-24T10:24:48.853Z,99384.39
2023-04-24T10:27:17.948Z,99386.45
2023-04-24T10:29:46.848Z,99389.73
2023-04-24T10:32:15.018Z,99396.46
2023-04-24T10:34:43.183Z,99399.45
2023-04-24T10:37:11.566Z,99405.17
2023-04-24T10:39:41.473Z,99401.54
2023-04-24T10:42:18.352Z,99403.19
2023-04-24T10:44:49.392Z,99406.04
2023-04-24T10:47:17.561Z,99406.76
2023-04-24T10:49:45.834Z,99407.94
2023-04-24T10:52:16.260Z,99406.20
2023-04-24T10:54:48.435Z,99406.45
2023-04-24T10:57:19.614Z,99406.35
2023-04-24T10:59:49.478Z,99407.86
2023-04-24T11:02:18.912Z,99407.72
2023-04-24T11:04:47.574Z,99403.73
2023-04-24T11:07:16.044Z,99405.80
2023-04-24T11:09:44.928Z,99403.31
2023-04-24T11:12:15.256Z,99398.08
2023-04-24T11:14:59.544Z,99397.08
2023-04-24T11:17:42.143Z,99398.00
2023-04-24T11:20:26.986Z,99397.97
2023-04-24T11:22:58.901Z,99400.17
2023-04-24T11:25:32.337Z,99401.25
2023-04-24T11:28:07.251Z,99402.84
2023-04-24T11:30:36.563Z,99407.73
2023-04-24T11:33:06.132Z,99407.10
2023-04-24T11:35:40.503Z,99411.95
2023-04-24T11:38:23.366Z,99415.27
2023-04-24T11:40:53.722Z,99420.30
2023-04-24T11:43:22.409Z,99417.40
2023-04-24T11:45:51.029Z,99421.31
2023-04-24T11:48:22.718Z,99424.83
2023-04-24T11:50:51.843Z,99425.10
2023-04-24T11:53:22.825Z,99427.47
2023-04-24T11:55:51.163Z,99425.40
2023-04-24T11:58:23.426Z,99434.13
2023-04-24T12:00:58.326Z,99435.33
2023-04-24T12:03:27.056Z,99443.30
2023-04-24T12:06:09.602Z,99448.31
2023-04-24T12:08:38.896Z,99448.85
2023-04-24T12:11:08.465Z,99457.63
2023-04-24T12:13:37.573Z,99458.25
2023-04-24T12:16:07.115Z,99455.27
2023-04-24T12:18:35.627Z,99457.04
2023-04-24T12:21:23.970Z,99454.97
2023-04-24T12:23:52.160Z,99455.02
2023-04-24T12:26:21.329Z,99451.77
2023-04-24T12:28:51.164Z,99456.98
2023-04-24T12:31:22.112Z,99460.89
2023-04-24T12:33:50.367Z,99456.70
2023-04-24T12:36:18.546Z,99458.52
2023-04-24T12:38:47.730Z,99450.30
2023-04-24T12:41:16.520Z,99449.88
2023-04-24T12:43:54.876Z,99444.00
2023-04-24T12:46:23.250Z,99441.11
2023-04-24T12:48:51.484Z,99441.07
2023-04-24T12:51:19.654Z,99440.66
2023-04-24T12:53:47.840Z,99443.06
2023-04-24T12:56:16.006Z,99439.63
2023-04-24T12:58:44.271Z,99439.02
2023-04-24T13:01:12.609Z,99439.16
2023-04-24T13:03:41.410Z,99430.36
2023-04-24T13:06:09.931Z,99428.98
2023-04-24T13:08:38.088Z,99431.82
2023-04-24T13:11:06.366Z,99429.55
2023-04-24T13:13:34.636Z,99430.67
2023-04-24T13:16:03.272Z,99427.52
2023-04-24T13:18:31.699Z,99425.97
2023-04-24T13:20:59.869Z,99423.89
2023-04-24T13:23:29.165Z,99422.14
2023-04-24T13:25:59.595Z,99421.77
2023-04-24T13:28:27.894Z,99418.23
2023-04-24T13:30:56.037Z,99420.61
2023-04-24T13:33:24.113Z,99421.81
2023-04-24T13:35:52.388Z,99421.38
2023-04-24T13:38:22.713Z,99419.19
2023-04-24T13:40:51.188Z,99416.36
2023-04-24T13:43:19.268Z,99414.77
2023-04-24T13:45:47.368Z,99406.97
2023-04-24T13:48:19.189Z,99411.30
2023-04-24T13:50:49.511Z,99408.24
2023-04-24T13:53:18.401Z,99405.02
2023-04-24T13:55:46.571Z,99403.37
2023-04-24T13:58:15.161Z,99398.46
2023-04-24T14:00:43.527Z,99401.19
2023-04-24T14:03:12.381Z,99398.85
2023-04-24T14:05:40.916Z,99402.87
2023-04-24T14:08:09.074Z,99404.87
2023-04-24T14:10:37.342Z,99407.81
2023-04-24T14:13:05.632Z,99407.54
2023-04-24T14:15:33.816Z,99408.48
2023-04-24T14:18:02.448Z,99410.61
2023-04-24T14:20:32.185Z,99407.67
2023-04-24T14:23:00.363Z,99408.86
2023-04-24T14:25:28.532Z,99406.53
2023-04-24T14:27:57.008Z,99404.36
2023-04-24T14:30:25.081Z,99402.96
2023-04-24T14:32:53.378Z,99403.16
2023-04-24T14:35:21.538Z,99406.92
2023-04-24T14:37:50.322Z,99411.73
2023-04-24T14:40:39.542Z,99416.35
2023-04-24T14:43:06.638Z,99414.92
2023-04-24T14:45:34.905Z,99420.84
2023-04-24T14:48:03.424Z,99421.38
2023-04-24T14:50:31.961Z,99428.20
2023-04-24T14:53:00.689Z,99428.71
2023-04-24T14:55:30.156Z,99427.02
2023-04-24T14:57:58.329Z,99427.37
2023-04-24T15:00:26.601Z,99425.88
2023-04-24T15:02:56.530Z,99423.79
2023-04-24T15:05:26.443Z,99423.91
2023-04-24T15:07:55.189Z,99421.84
2023-04-24T15:10:24.961Z,99419.98
2023-04-24T15:12:53.104Z,99421.02
2023-04-24T15:15:21.263Z,99420.09
2023-04-24T15:17:49.459Z,99414.23
2023-04-24T15:20:17.812Z,99413.36
2023-04-24T15:22:46.190Z,99414.73
2023-04-24T15:25:14.379Z,99414.67
2023-04-24T15:27:46.524Z,99411.05
2023-04-24T15:30:15.216Z,99408.91
2023-04-24T15:32:43.644Z,99404.05
2023-04-24T15:35:11.759Z,99402.49
2023-04-24T15:37:40.243Z,99399.65
2023-04-24T15:40:09.637Z,99395.75
2023-04-24T15:42:38.218Z,99389.73
2023-04-24T15:45:07.013Z,99384.71
2023-04-24T15:47:35.308Z,99386.49
2023-04-24T15:50:04.150Z,99391.19
2023-04-24T15:52:32.445Z,99396.05
2023-04-24T15:55:00.516Z,99399.52
2023-04-24T15:57:28.685Z,99403.71
2023-04-24T15:59:56.888Z,99400.88
2023-04-24T16:02:25.239Z,99405.04
2023-04-24T16:04:54.299Z,99405.54
2023-04-24T16:07:22.705Z,99408.36
2023-04-24T16:09:51.002Z,99409.59
2023-04-24T16:12:19.871Z,99410.80
2023-04-24T16:14:48.255Z,99413.52
2023-04-24T16:17:16.640Z,99416.34
2023-04-24T16:19:44.800Z,99416.38
2023-04-24T16:22:12.971Z,99409.77
2023-04-24T16:24:41.037Z,99409.84
2023-04-24T16:27:09.323Z,99409.64
2023-04-24T16:29:37.489Z,99410.31
2023-04-24T16:32:05.765Z,99410.61
2023-04-24T16:34:33.932Z,99413.75
2023-04-24T16:37:02.219Z,99418.38
2023-04-24T16:39:30.699Z,99415.91
2023-04-24T16:41:59.946Z,99421.81
2023-04-24T16:44:29.022Z,99421.61
2023-04-24T16:46:57.630Z,99431.19
2023-04-24T16:49:31.199Z,99440.86
2023-04-24T16:52:00.386Z,99439.45
2023-04-24T16:54:30.700Z,99437.76
2023-04-24T16:56:58.744Z,99442.87
2023-04-24T16:59:26.916Z,99441.84
2023-04-24T17:01:55.509Z,99442.81
2023-04-24T17:04:23.789Z,99440.21
2023-04-24T17:06:52.053Z,99443.34
2023-04-24T17:09:20.836Z,99444.95
2023-04-24T17:11:49.008Z,99443.05
2023-04-24T17:14:17.425Z,99441.38
2023-04-24T17:16:46.476Z,99443.34
2023-04-24T17:19:14.750Z,99445.26
2023-04-24T17:21:42.830Z,99443.52
2023-04-24T17:24:11.107Z,99440.29
2023-04-24T17:26:39.270Z,99439.95
2023-04-24T17:29:07.344Z,99447.64
2023-04-24T17:31:35.628Z,99446.89
2023-04-24T17:34:04.348Z,99449.99
2023-04-24T17:36:32.574Z,99448.52
2023-04-24T17:39:00.857Z,99447.95
2023-04-24T17:41:29.037Z,99449.17
2023-04-24T17:43:57.195Z,99448.68
2023-04-24T17:46:25.286Z,99441.02
2023-04-24T17:48:53.752Z,99440.34
2023-04-24T17:51:22.227Z,99443.66
2023-04-24T17:53:50.697Z,99442.48
2023-04-24T17:56:18.977Z,99448.70
2023-04-24T17:58:47.309Z,99448.66
2023-04-24T18:01:15.775Z,99444.52
2023-04-24T18:03:44.794Z,99443.89
2023-04-24T18:06:17.523Z,99446.15
2023-04-24T18:08:45.875Z,99447.98
2023-04-24T18:11:14.257Z,99453.83
2023-04-24T18:13:43.150Z,99459.39
2023-04-24T18:16:11.369Z,99458.30
2023-04-24T18:18:39.795Z,99460.56
2023-04-24T18:21:07.970Z,99463.39
2023-04-24T18:23:36.555Z,99464.38
2023-04-24T18:26:04.720Z,99464.96
2023-04-24T18:28:34.828Z,99461.95
2023-04-24T18:31:03.047Z,99466.30
2023-04-24T18:33:31.696Z,99463.04
2023-04-24T18:36:00.413Z,99463.55
2023-04-24T18:38:28.665Z,99465.21
2023-04-24T18:40:56.839Z,99471.42
2023-04-24T18:43:25.001Z,99472.59
2023-04-24T18:45:53.281Z,99479.70
2023-04-24T18:48:21.963Z,99474.05
2023-04-24T18:50:50.134Z,99477.64
2023-04-24T18:53:18.451Z,99481.58
2023-04-24T18:55:46.593Z,99480.33
2023-04-24T18:58:14.854Z,99479.38
2023-04-24T19:00:43.064Z,99481.74
2023-04-24T19:03:11.733Z,99479.91
2023-04-24T19:05:40.085Z,99480.10
2023-04-24T19:08:08.464Z,99481.48
2023-04-24T19:10:36.967Z,99481.97
2023-04-24T19:13:06.143Z,99479.98
2023-04-24T19:15:34.208Z,99479.95
2023-04-24T19:18:02.535Z,99478.96
2023-04-24T19:20:31.015Z,99483.09
2023-04-24T19:22:59.444Z,99488.48
2023-04-24T19:25:27.619Z,99491.63
2023-04-24T19:27:56.277Z,99498.77
2023-04-24T19:30:24.376Z,99495.50
2023-04-24T19:32:52.618Z,99498.77
2023-04-24T19:35:21.006Z,99502.52
2023-04-24T19:37:49.106Z,99505.95
2023-04-24T19:40:17.775Z,99510.95
2023-04-24T19:42:46.161Z,99508.10
2023-04-24T19:45:14.530Z,99504.54
2023-04-24T19:47:43.451Z,99506.21
2023-04-24T19:50:12.109Z,99510.11
2023-04-24T19:52:40.491Z,99511.27
2023-04-24T19:55:09.167Z,99512.61
2023-04-24T19:57:37.451Z,99513.55
2023-04-24T20:00:06.845Z,99510.77
2023-04-24T20:02:35.678Z,99510.13
2023-04-24T20:05:05.306Z,99510.13
2023-04-24T20:07:33.408Z,99507.42
2023-04-24T20:10:01.727Z,99508.14
2023-04-24T20:12:29.857Z,99511.72
2023-04-24T20:14:58.024Z,99514.95
2023-04-24T20:17:26.414Z,99517.36
2023-04-24T20:19:54.897Z,99517.83
2023-04-24T20:22:23.158Z,99522.58
2023-04-24T20:24:51.944Z,99522.35
2023-04-24T20:27:21.056Z,99522.61
2023-04-24T20:29:49.207Z,99519.86
2023-04-24T20:32:17.487Z,99523.34
2023-04-24T20:34:45.657Z,99529.75
2023-04-24T20:37:13.694Z,99524.60
2023-04-24T20:39:42.207Z,99529.29
2023-04-24T20:42:11.414Z,99530.52
2023-04-24T20:44:39.575Z,99535.10
2023-04-24T20:47:07.827Z,99537.46
2023-04-24T20:49:36.245Z,99542.14
2023-04-24T20:52:04.606Z,99548.52
2023-04-24T20:54:32.788Z,99550.09
2023-04-24T20:57:02.077Z,99556.90
2023-04-24T20:59:30.247Z,99554.98
2023-04-24T21:01:58.376Z,99555.58
2023-04-24T21:04:26.672Z,99558.95
2023-04-24T21:06:54.864Z,99562.09
2023-04-24T21:09:23.045Z,99561.86
2023-04-24T21:11:51.106Z,99568.36
2023-04-24T21:14:19.286Z,99569.79
2023-04-24T21:16:47.617Z,99570.73
2023-04-24T21:19:15.931Z,99574.35
2023-04-24T21:21:44.001Z,99576.84
2023-04-24T21:24:12.175Z,99577.77
2023-04-24T21:26:40.241Z,99578.88
2023-04-24T21:29:08.313Z,99584.19
2023-04-24T21:31:36.613Z,99582.32
2023-04-24T21:34:05.081Z,99583.23
2023-04-24T21:36:33.760Z,99584.18
2023-04-24T21:39:01.919Z,99586.11
2023-04-24T21:41:30.194Z,99589.62
2023-04-24T21:43:59.389Z,99592.30
2023-04-24T21:46:27.679Z,99592.41
2023-04-24T21:48:55.836Z,99592.39
2023-04-24T21:51:24.109Z,99588.15
2023-04-24T21:53:52.283Z,99592.75
2023-04-24T21:56:20.659Z,99594.11
2023-04-24T21:58:48.849Z,99600.53
2023-04-24T22:01:17.160Z,99598.16
2023-04-24T22:03:45.526Z,99597.20
2023-04-24T22:06:14.889Z,99597.00
2023-04-24T22:08:47.488Z,99601.18
2023-04-24T22:11:25.930Z,99602.73
2023-04-24T22:13:55.691Z,99604.30
2023-04-24T22:16:24.388Z,99604.23
2023-04-24T22:18:55.628Z,99608.19
2023-04-24T22:21:24.044Z,99612.98
2023-04-24T22:23:52.554Z,99612.39
2023-04-24T22:26:21.206Z,99610.71
2023-04-24T22:28:49.532Z,99614.41
2023-04-24T22:31:17.934Z,99615.70
2023-04-24T22:33:49.518Z,99611.83
2023-04-24T22:36:18.150Z,99616.30
2023-04-24T22:38:46.216Z,99616.05
2023-04-24T22:41:14.608Z,99616.87
2023-04-24T22:43:42.764Z,99620.48
2023-04-24T22:46:10.936Z,99617.06
2023-04-24T22:48:39.264Z,99622.05
2023-04-24T22:51:07.382Z,99626.02
2023-04-24T22:53:36.886Z,99633.10
2023-04-24T22:56:05.978Z,99632.02
2023-04-24T22:58:34.154Z,99634.46
2023-04-24T23:01:02.293Z,99632.52
2023-04-24T23:03:31.814Z,99633.50
2023-04-24T23:06:00.108Z,99633.10
2023-04-24T23:08:28.383Z,99632.00
2023-04-24T23:10:57.069Z,99630.02
2023-04-24T23:13:26.265Z,99629.80
2023-04-24T23:15:54.930Z,99630.22
2023-04-24T23:18:23.221Z,99629.45
2023-04-24T23:20:52.102Z,99629.27
2023-04-24T23:23:20.275Z,99630.65
2023-04-24T23:25:48.449Z,99634.61
2023-04-24T23:28:17.247Z,99636.70
2023-04-24T23:30:45.409Z,99637.66
2023-04-24T23:33:14.477Z,99629.86
2023-04-24T23:35:42.682Z,99635.16
2023-04-24T23:38:11.257Z,99640.92
2023-04-24T23:40:39.533Z,99637.42
2023-04-24T23:43:08.721Z,99640.83
2023-04-24T23:45:37.332Z,99641.29
2023-04-24T23:48:06.100Z,99642.65
2023-04-24T23:50:34.595Z,99637.94
2023-04-24T23:53:02.874Z,99636.93
2023-04-24T23:55:31.037Z,99638.09
2023-04-24T23:57:59.402Z,99639.29
